Time;durP1;ratioP1;P1;durP2;ratioP2;P2;SDS_P1;SDS_P2;PMS_P1;PMS_P2;Temp;Humidity;BMP_temperature;BMP_pressure;BME280_temperature;BME280_humidity;BME280_pressure;Samples;Min_cycle;Max_cycle;Signal;HPM_P1;HPM_P2
2021/01/17 00:03:55;;;;;;;39.83;22.23;;;;;;;;;;10123156;29;20690;-78
2021/01/17 00:08:56;;;;;;;36.33;20.70;;;;;;;;;;10138295;29;20217;-78
2021/01/17 00:13:58;;;;;;;41.80;21.43;;;;;;;;;;10135794;29;20216;-79
2021/01/17 00:19:01;;;;;;;39.07;21.90;;;;;;;;;;10143598;29;20219;-79
2021/01/17 00:24:03;;;;;;;40.97;21.67;;;;;;;;;;10136414;29;20251;-80
2021/01/17 00:29:05;;;;;;;38.67;20.97;;;;;;;;;;10129374;29;20785;-80
2021/01/17 00:34:08;;;;;;;43.83;22.10;;;;;;;;;;10128025;29;21420;-79
2021/01/17 00:39:10;;;;;;;38.80;21.30;;;;;;;;;;10134668;29;20223;-79
2021/01/17 00:44:13;;;;;;;37.80;20.90;;;;;;;;;;10133325;29;20256;-79
2021/01/17 00:49:16;;;;;;;39.37;20.87;;;;;;;;;;10136663;29;20215;-79
2021/01/17 00:54:18;;;;;;;39.57;22.20;;;;;;;;;;10136052;29;20216;-80
2021/01/17 00:59:20;;;;;;;36.33;20.63;;;;;;;;;;10132174;29;21531;-78
2021/01/17 01:04:23;;;;;;;38.60;21.47;;;;;;;;;;10134972;29;20630;-80
2021/01/17 01:09:25;;;;;;;38.73;21.07;;;;;;;;;;10139313;29;20220;-79
2021/01/17 01:14:27;;;;;;;40.00;20.67;;;;;;;;;;10127631;29;20299;-78
2021/01/17 01:19:30;;;;;;;39.40;21.27;;;;;;;;;;10129926;29;20572;-77
2021/01/17 01:24:32;;;;;;;36.20;20.70;;;;;;;;;;10135424;29;20240;-79
2021/01/17 01:29:34;;;;;;;37.67;21.17;;;;;;;;;;10139994;29;20216;-78
2021/01/17 01:34:37;;;;;;;40.50;21.90;;;;;;;;;;10131689;29;20216;-79
2021/01/17 01:39:38;;;;;;;43.67;21.50;;;;;;;;;;10137133;29;21033;-78
2021/01/17 01:44:40;;;;;;;42.53;21.80;;;;;;;;;;10128983;29;21108;-79
2021/01/17 01:49:43;;;;;;;42.07;22.60;;;;;;;;;;10132268;29;20212;-78
2021/01/17 01:54:45;;;;;;;40.40;21.47;;;;;;;;;;10144687;29;20230;-78
2021/01/17 01:59:47;;;;;;;39.93;21.00;;;;;;;;;;10138431;29;20749;-79
2021/01/17 02:04:50;;;;;;;39.60;20.53;;;;;;;;;;10124096;29;20242;-78
2021/01/17 02:09:52;;;;;;;39.70;20.73;;;;;;;;;;10126291;29;21619;-78
2021/01/17 02:14:57;;;;;;;39.17;20.60;;;;;;;;;;10136589;29;20224;-78
2021/01/17 02:20:05;;;;;;;39.57;20.87;;;;;;;;;;10136031;29;20235;-78
2021/01/17 02:25:09;;;;;;;42.77;21.83;;;;;;;;;;10137233;29;20645;-78
2021/01/17 02:30:12;;;;;;;42.70;22.00;;;;;;;;;;10135072;29;20212;-77
2021/01/17 02:35:14;;;;;;;41.87;21.70;;;;;;;;;;10135960;29;20226;-78
2021/01/17 02:40:26;;;;;;;44.07;21.47;;;;;;;;;;10125803;29;20231;-78
2021/01/17 02:45:28;;;;;;;43.13;20.93;;;;;;;;;;10132813;29;20239;-79
2021/01/17 02:50:31;;;;;;;40.57;21.07;;;;;;;;;;10134460;29;20636;-79
2021/01/17 02:55:37;;;;;;;36.10;19.93;;;;;;;;;;10131009;29;20580;-78
2021/01/17 03:00:43;;;;;;;40.47;20.27;;;;;;;;;;10131448;29;20231;-77
2021/01/17 03:05:47;;;;;;;34.00;18.80;;;;;;;;;;10129994;29;20243;-78
2021/01/17 03:10:50;;;;;;;37.50;19.20;;;;;;;;;;10128081;29;20213;-79
2021/01/17 03:15:52;;;;;;;34.13;19.53;;;;;;;;;;10131781;29;20216;-77
2021/01/17 03:20:54;;;;;;;36.43;19.03;;;;;;;;;;10133964;29;20789;-79
2021/01/17 03:25:57;;;;;;;36.03;18.53;;;;;;;;;;10134035;29;20609;-80
2021/01/17 03:30:58;;;;;;;32.17;18.40;;;;;;;;;;10143587;29;20223;-77
2021/01/17 03:36:00;;;;;;;40.87;20.23;;;;;;;;;;10124324;29;20212;-78
2021/01/17 03:41:03;;;;;;;35.40;19.30;;;;;;;;;;10138734;29;20577;-79
2021/01/17 03:46:05;;;;;;;33.43;18.13;;;;;;;;;;10130621;29;20247;-77
2021/01/17 03:51:07;;;;;;;35.03;18.63;;;;;;;;;;10140679;29;20227;-78
2021/01/17 03:56:09;;;;;;;33.57;18.20;;;;;;;;;;10144953;29;20724;-79
2021/01/17 04:01:11;;;;;;;35.43;18.27;;;;;;;;;;10127752;29;20231;-79
2021/01/17 04:06:13;;;;;;;34.60;19.07;;;;;;;;;;10142582;29;20256;-79
2021/01/17 04:11:16;;;;;;;35.23;18.63;;;;;;;;;;10149456;29;20216;-79
2021/01/17 04:16:18;;;;;;;33.70;18.07;;;;;;;;;;10127953;29;20586;-79
2021/01/17 04:21:20;;;;;;;35.23;18.97;;;;;;;;;;10147596;29;20244;-80
2021/01/17 04:26:23;;;;;;;34.80;18.30;;;;;;;;;;10134421;29;20267;-78
2021/01/17 04:31:25;;;;;;;34.93;18.37;;;;;;;;;;10132937;29;20213;-78
2021/01/17 04:36:27;;;;;;;33.83;18.67;;;;;;;;;;10136149;29;20215;-78
2021/01/17 04:41:30;;;;;;;32.43;17.60;;;;;;;;;;10141577;29;20216;-77
2021/01/17 04:46:32;;;;;;;30.00;17.50;;;;;;;;;;10141082;29;20930;-80
2021/01/17 04:51:35;;;;;;;28.47;17.17;;;;;;;;;;10139856;29;20854;-80
2021/01/17 04:56:42;;;;;;;31.57;17.27;;;;;;;;;;10137445;29;20214;-80
2021/01/17 05:01:57;;;;;;;30.07;17.33;;;;;;;;;;10137812;29;20266;-79
2021/01/17 05:07:00;;;;;;;28.40;16.80;;;;;;;;;;10136298;29;20234;-79
2021/01/17 05:12:08;;;;;;;32.43;17.37;;;;;;;;;;10140532;29;20221;-78
2021/01/17 05:17:11;;;;;;;29.93;16.83;;;;;;;;;;10133335;29;20223;-78
2021/01/17 05:22:14;;;;;;;31.20;17.37;;;;;;;;;;10139122;29;20243;-77
2021/01/17 05:27:17;;;;;;;31.37;17.20;;;;;;;;;;10139837;29;20242;-78
2021/01/17 05:32:19;;;;;;;34.60;17.83;;;;;;;;;;10132901;29;20216;-78
2021/01/17 05:37:22;;;;;;;30.73;17.07;;;;;;;;;;10152371;29;20219;-79
2021/01/17 05:42:25;;;;;;;32.87;17.30;;;;;;;;;;10130169;29;20224;-78
2021/01/17 05:47:27;;;;;;;31.53;17.20;;;;;;;;;;10122886;29;20255;-77
2021/01/17 05:52:29;;;;;;;32.67;17.40;;;;;;;;;;10134212;29;20580;-79
2021/01/17 05:57:32;;;;;;;37.60;18.57;;;;;;;;;;10144927;29;20693;-79
2021/01/17 06:02:34;;;;;;;34.47;17.80;;;;;;;;;;10133570;29;20600;-79
2021/01/17 06:07:38;;;;;;;36.07;18.33;;;;;;;;;;10143102;29;20239;-78
2021/01/17 06:12:41;;;;;;;35.23;17.43;;;;;;;;;;10141023;29;20302;-78
2021/01/17 06:17:45;;;;;;;38.63;18.40;;;;;;;;;;10143156;29;20582;-79
2021/01/17 06:22:47;;;;;;;34.20;18.27;;;;;;;;;;10134254;29;20318;-79
2021/01/17 06:27:50;;;;;;;33.57;17.93;;;;;;;;;;10138970;29;20240;-78
2021/01/17 06:32:52;;;;;;;34.37;17.60;;;;;;;;;;10127206;29;20686;-84
2021/01/17 06:37:54;;;;;;;35.07;17.00;;;;;;;;;;10147749;29;20272;-83
2021/01/17 06:42:58;;;;;;;34.70;17.57;;;;;;;;;;10133613;29;20274;-83
2021/01/17 06:48:00;;;;;;;33.80;17.23;;;;;;;;;;10174400;28;20316;-81
2021/01/17 06:53:01;;;;;;;35.27;17.97;;;;;;;;;;10187322;29;20227;-82
2021/01/17 06:58:06;;;;;;;37.83;17.17;;;;;;;;;;10190872;29;20238;-83
2021/01/17 07:03:14;;;;;;;34.20;17.23;;;;;;;;;;10178138;29;20247;-82
2021/01/17 07:08:28;;;;;;;31.60;16.90;;;;;;;;;;10189963;29;20243;-82
2021/01/17 07:13:33;;;;;;;35.83;16.80;;;;;;;;;;10190583;29;20239;-83
2021/01/17 07:18:36;;;;;;;28.77;14.90;;;;;;;;;;10184552;29;20223;-84
2021/01/17 07:23:39;;;;;;;29.60;14.57;;;;;;;;;;10141578;29;20286;-82
2021/01/17 07:28:45;;;;;;;27.57;13.17;;;;;;;;;;10142981;29;20718;-81
2021/01/17 07:33:48;;;;;;;29.47;12.03;;;;;;;;;;10121778;29;20715;-77
2021/01/17 07:38:54;;;;;;;26.67;12.60;;;;;;;;;;10148711;29;20779;-78
2021/01/17 07:43:59;;;;;;;26.23;11.40;;;;;;;;;;10126575;29;20678;-77
2021/01/17 07:49:02;;;;;;;29.00;10.73;;;;;;;;;;10131637;29;20580;-80
2021/01/17 07:54:05;;;;;;;23.30;9.90;;;;;;;;;;10134235;29;20360;-77
2021/01/17 07:59:08;;;;;;;30.80;10.00;;;;;;;;;;10131856;29;20246;-81
2021/01/17 08:04:29;;;;;;;29.60;9.37;;;;;;;;;;10145228;29;20247;-80
2021/01/17 08:09:52;;;;;;;27.53;9.90;;;;;;;;;;10134773;29;20634;-79
2021/01/17 08:30:47;;;;;;;21.97;8.57;;;;;;;;;;10508416;27;1083536;-85
2021/01/17 08:35:50;;;;;;;21.97;8.37;;;;;;;;;;10540001;27;20999;-83
2021/01/17 08:40:54;;;;;;;24.00;8.37;;;;;;;;;;10516376;27;20824;-77
2021/01/17 08:45:58;;;;;;;26.90;8.00;;;;;;;;;;10521986;27;20209;-84
2021/01/17 08:51:19;;;;;;;26.33;7.43;;;;;;;;;;10525289;27;20210;-83
2021/01/17 08:56:24;;;;;;;24.80;7.00;;;;;;;;;;10526568;27;20741;-78
2021/01/17 09:01:28;;;;;;;22.10;6.50;;;;;;;;;;10518695;27;20209;-86
2021/01/17 09:06:34;;;;;;;30.00;5.90;;;;;;;;;;10535472;27;20209;-91
2021/01/17 09:11:37;;;;;;;30.07;5.37;;;;;;;;;;10535936;27;20240;-82
2021/01/17 09:16:46;;;;;;;24.20;5.00;;;;;;;;;;10509099;28;20232;-89
2021/01/17 09:21:54;;;;;;;24.30;4.70;;;;;;;;;;10505722;28;20230;-82
2021/01/17 09:26:57;;;;;;;26.70;5.10;;;;;;;;;;10508044;28;20215;-80
2021/01/17 09:32:02;;;;;;;25.17;5.07;;;;;;;;;;10473930;28;20606;-80
2021/01/17 09:37:07;;;;;;;18.53;4.33;;;;;;;;;;10480643;28;20241;-88
2021/01/17 09:42:10;;;;;;;20.07;4.70;;;;;;;;;;10479570;28;20406;-81
2021/01/17 09:47:15;;;;;;;22.73;4.70;;;;;;;;;;10476453;28;20214;-82
2021/01/17 09:52:18;;;;;;;22.70;5.77;;;;;;;;;;10476191;28;20198;-83
2021/01/17 09:57:21;;;;;;;24.07;4.80;;;;;;;;;;10477864;28;20229;-83
2021/01/17 10:02:27;;;;;;;23.93;5.13;;;;;;;;;;10465685;28;20303;-82
2021/01/17 10:07:29;;;;;;;20.80;4.40;;;;;;;;;;10481553;28;20879;-84
2021/01/17 10:12:32;;;;;;;21.47;3.77;;;;;;;;;;10470172;28;20210;-81
2021/01/17 10:17:35;;;;;;;24.23;4.67;;;;;;;;;;10499735;28;20316;-88
2021/01/17 10:22:37;;;;;;;27.03;4.23;;;;;;;;;;10479923;28;20244;-83
2021/01/17 10:27:40;;;;;;;21.13;4.73;;;;;;;;;;10471036;28;20242;-82
2021/01/17 10:32:43;;;;;;;15.27;3.90;;;;;;;;;;10474106;28;20585;-86
2021/01/17 10:37:45;;;;;;;20.07;3.87;;;;;;;;;;10473988;28;20239;-78
2021/01/17 10:42:50;;;;;;;18.43;4.27;;;;;;;;;;10471113;28;20218;-82
2021/01/17 10:47:57;;;;;;;23.07;4.40;;;;;;;;;;10470120;28;20210;-84
2021/01/17 10:53:02;;;;;;;21.50;4.50;;;;;;;;;;10465721;28;20211;-81
2021/01/17 10:58:05;;;;;;;26.67;4.57;;;;;;;;;;10485346;28;20245;-83
2021/01/17 11:03:09;;;;;;;23.87;3.97;;;;;;;;;;10473108;28;20216;-83
2021/01/17 11:08:11;;;;;;;24.87;4.50;;;;;;;;;;10483421;28;20209;-82
2021/01/17 11:13:15;;;;;;;23.73;5.00;;;;;;;;;;10480927;28;20308;-79
2021/01/17 11:18:22;;;;;;;21.83;4.20;;;;;;;;;;10477246;28;20904;-92
2021/01/17 11:23:24;;;;;;;22.90;4.07;;;;;;;;;;10472022;28;20226;-77
2021/01/17 11:28:28;;;;;;;16.00;3.80;;;;;;;;;;10481345;28;20221;-82
2021/01/17 11:33:32;;;;;;;18.87;3.77;;;;;;;;;;10470919;28;20690;-84
2021/01/17 11:38:44;;;;;;;24.27;4.70;;;;;;;;;;10482313;28;20233;-83
2021/01/17 11:43:46;;;;;;;20.03;3.40;;;;;;;;;;10468484;28;20209;-84
2021/01/17 11:48:49;;;;;;;16.77;3.47;;;;;;;;;;10473161;28;20573;-82
2021/01/17 11:54:00;;;;;;;15.17;3.80;;;;;;;;;;10485843;28;20359;-83
2021/01/17 11:59:02;;;;;;;16.03;3.20;;;;;;;;;;10488523;28;20252;-82
2021/01/17 12:04:08;;;;;;;13.90;3.60;;;;;;;;;;10492885;28;20213;-83
2021/01/17 12:09:18;;;;;;;15.93;3.33;;;;;;;;;;10465142;28;20210;-83
2021/01/17 12:14:21;;;;;;;18.43;3.50;;;;;;;;;;10476757;28;20608;-83
2021/01/17 12:19:25;;;;;;;19.63;3.37;;;;;;;;;;10484860;28;20237;-83
2021/01/17 12:24:30;;;;;;;15.60;3.00;;;;;;;;;;10487583;28;20957;-83
2021/01/17 12:29:32;;;;;;;17.37;3.10;;;;;;;;;;10486444;28;20336;-83
2021/01/17 12:34:38;;;;;;;13.70;2.97;;;;;;;;;;10483326;28;20285;-83
2021/01/17 12:39:40;;;;;;;16.37;3.03;;;;;;;;;;10483801;28;20237;-83
2021/01/17 12:44:42;;;;;;;15.63;3.10;;;;;;;;;;10493439;28;20703;-83
2021/01/17 12:49:45;;;;;;;19.83;3.70;;;;;;;;;;10484371;28;20201;-83
2021/01/17 12:54:47;;;;;;;15.47;3.37;;;;;;;;;;10488867;28;20562;-83
2021/01/17 12:59:49;;;;;;;16.23;4.47;;;;;;;;;;10481588;28;20388;-83
2021/01/17 13:04:52;;;;;;;15.57;3.33;;;;;;;;;;10488852;28;20206;-84
2021/01/17 13:09:54;;;;;;;22.57;3.83;;;;;;;;;;10500588;28;20705;-83
2021/01/17 13:14:56;;;;;;;17.53;3.80;;;;;;;;;;10483844;28;20684;-84
2021/01/17 13:19:59;;;;;;;19.53;3.83;;;;;;;;;;10489307;28;20234;-82
2021/01/17 13:25:00;;;;;;;22.43;4.20;;;;;;;;;;10482628;28;20323;-84
2021/01/17 13:30:03;;;;;;;17.90;3.20;;;;;;;;;;10480063;28;20206;-82
2021/01/17 13:35:06;;;;;;;19.23;3.60;;;;;;;;;;10492940;28;20644;-83
2021/01/17 13:40:09;;;;;;;22.53;3.90;;;;;;;;;;10488956;28;20769;-83
2021/01/17 13:45:11;;;;;;;22.10;3.80;;;;;;;;;;10483344;28;20589;-83
2021/01/17 13:50:16;;;;;;;20.73;3.50;;;;;;;;;;10488534;28;20605;-83
2021/01/17 13:55:18;;;;;;;21.17;3.83;;;;;;;;;;10480241;28;20210;-87
2021/01/17 14:00:21;;;;;;;18.67;3.20;;;;;;;;;;10469902;28;20248;-82
2021/01/17 14:05:24;;;;;;;20.13;3.90;;;;;;;;;;10463873;28;20627;-80
2021/01/17 14:10:26;;;;;;;17.30;3.60;;;;;;;;;;10483486;28;20234;-89
2021/01/17 14:15:28;;;;;;;22.20;3.53;;;;;;;;;;10479562;28;20213;-87
2021/01/17 14:20:31;;;;;;;19.43;4.10;;;;;;;;;;10472667;28;20712;-87
2021/01/17 14:25:33;;;;;;;26.53;4.00;;;;;;;;;;10484409;28;20202;-90
2021/01/17 14:30:36;;;;;;;19.40;4.07;;;;;;;;;;10462775;28;20222;-84
2021/01/17 14:35:39;;;;;;;21.83;3.60;;;;;;;;;;10478927;28;20236;-84
2021/01/17 14:40:41;;;;;;;22.13;3.73;;;;;;;;;;10469947;28;20404;-83
2021/01/17 14:45:43;;;;;;;16.53;3.77;;;;;;;;;;10474860;28;20641;-77
2021/01/17 14:50:46;;;;;;;29.67;5.00;;;;;;;;;;10482485;28;20765;-77
2021/01/17 14:55:48;;;;;;;10.90;2.70;;;;;;;;;;10495171;28;20238;-85
2021/01/17 15:00:50;;;;;;;7.33;1.87;;;;;;;;;;10492535;28;20234;-79
2021/01/17 15:05:53;;;;;;;6.90;2.17;;;;;;;;;;10485145;28;20769;-80
2021/01/17 15:10:56;;;;;;;6.53;1.93;;;;;;;;;;10485463;28;20578;-79
2021/01/17 15:15:58;;;;;;;6.63;1.83;;;;;;;;;;10469291;28;20285;-86
2021/01/17 15:21:00;;;;;;;4.27;1.90;;;;;;;;;;10477548;28;20920;-87
2021/01/17 15:26:03;;;;;;;10.30;2.10;;;;;;;;;;10471727;28;20675;-88
2021/01/17 15:31:05;;;;;;;8.77;2.90;;;;;;;;;;10470582;28;21158;-81
2021/01/17 15:36:10;;;;;;;8.67;2.50;;;;;;;;;;10468140;28;20360;-84
2021/01/17 15:41:13;;;;;;;8.63;2.00;;;;;;;;;;10482490;28;20237;-84
2021/01/17 15:46:15;;;;;;;10.87;2.47;;;;;;;;;;10462365;28;20802;-84
2021/01/17 15:51:20;;;;;;;7.03;2.23;;;;;;;;;;10462542;28;20211;-83
2021/01/17 15:56:23;;;;;;;7.40;2.57;;;;;;;;;;10468088;28;20217;-84
2021/01/17 16:01:25;;;;;;;9.70;2.40;;;;;;;;;;10467168;28;20212;-79
2021/01/17 16:06:39;;;;;;;9.63;2.20;;;;;;;;;;10473252;28;20648;-86
2021/01/17 16:11:43;;;;;;;7.33;2.30;;;;;;;;;;10481679;28;20214;-77
2021/01/17 16:16:45;;;;;;;9.13;2.73;;;;;;;;;;10467739;28;20419;-78
2021/01/17 16:21:52;;;;;;;13.27;3.70;;;;;;;;;;10464214;28;20230;-78
2021/01/17 16:26:54;;;;;;;9.90;3.20;;;;;;;;;;10471126;28;20221;-79
2021/01/17 16:31:57;;;;;;;10.03;2.77;;;;;;;;;;10466634;28;20202;-78
2021/01/17 16:37:03;;;;;;;9.30;3.03;;;;;;;;;;10473024;28;20240;-77
2021/01/17 16:42:05;;;;;;;7.83;2.90;;;;;;;;;;10482938;28;20547;-79
2021/01/17 16:47:08;;;;;;;9.03;2.83;;;;;;;;;;10487921;28;20209;-79
2021/01/17 16:52:11;;;;;;;11.13;3.10;;;;;;;;;;10482334;28;20205;-79
2021/01/17 16:57:14;;;;;;;10.87;3.30;;;;;;;;;;10482832;28;20265;-78
2021/01/17 17:02:17;;;;;;;13.73;3.60;;;;;;;;;;10472631;28;20678;-78
2021/01/17 17:07:20;;;;;;;16.80;4.47;;;;;;;;;;10484442;28;20996;-79
2021/01/17 17:12:21;;;;;;;18.67;5.73;;;;;;;;;;10486125;28;20209;-79
2021/01/17 17:17:23;;;;;;;22.47;5.40;;;;;;;;;;10480426;28;20236;-78
2021/01/17 17:22:26;;;;;;;25.13;5.50;;;;;;;;;;10469292;28;20319;-79
2021/01/17 17:27:28;;;;;;;20.73;5.67;;;;;;;;;;10474731;28;20222;-78
2021/01/17 17:32:30;;;;;;;24.83;5.70;;;;;;;;;;10471892;28;21663;-77
2021/01/17 17:37:37;;;;;;;22.67;6.93;;;;;;;;;;10492204;28;22828;-78
2021/01/17 17:42:39;;;;;;;24.50;6.33;;;;;;;;;;10477068;28;20205;-77
2021/01/17 17:47:41;;;;;;;22.50;6.20;;;;;;;;;;10492649;28;20301;-77
2021/01/17 17:52:44;;;;;;;25.07;6.20;;;;;;;;;;10481481;28;20207;-77
2021/01/17 17:57:47;;;;;;;21.40;5.70;;;;;;;;;;10474771;28;20712;-78
2021/01/17 18:02:50;;;;;;;29.03;6.13;;;;;;;;;;10477266;28;20212;-78
2021/01/17 18:07:52;;;;;;;19.90;5.07;;;;;;;;;;10479202;28;20216;-77
2021/01/17 18:12:54;;;;;;;23.30;4.67;;;;;;;;;;10485455;28;20317;-77
2021/01/17 18:17:56;;;;;;;20.73;4.80;;;;;;;;;;10471658;28;20529;-78
2021/01/17 18:23:00;;;;;;;17.57;4.17;;;;;;;;;;10477421;28;20245;-78
2021/01/17 18:28:02;;;;;;;19.47;4.53;;;;;;;;;;10470510;28;20245;-79
2021/01/17 18:33:05;;;;;;;21.47;4.60;;;;;;;;;;10470910;28;20217;-77
2021/01/17 18:38:08;;;;;;;19.67;4.80;;;;;;;;;;10471356;28;20239;-78
2021/01/17 18:43:09;;;;;;;16.70;4.80;;;;;;;;;;10482328;28;20214;-78
2021/01/17 18:48:12;;;;;;;22.37;5.30;;;;;;;;;;10465668;28;20213;-78
2021/01/17 18:53:14;;;;;;;19.13;4.47;;;;;;;;;;10480675;28;20241;-78
2021/01/17 18:58:16;;;;;;;18.20;4.50;;;;;;;;;;10469171;28;20229;-78
2021/01/17 19:03:18;;;;;;;20.40;5.07;;;;;;;;;;10473081;28;20466;-78
2021/01/17 19:08:23;;;;;;;20.67;4.83;;;;;;;;;;10470962;28;20218;-78
2021/01/17 19:13:25;;;;;;;21.03;4.53;;;;;;;;;;10476261;28;20209;-77
2021/01/17 19:18:26;;;;;;;27.43;4.77;;;;;;;;;;10466838;28;20242;-78
2021/01/17 19:23:30;;;;;;;23.20;5.00;;;;;;;;;;10472069;28;20325;-78
2021/01/17 19:28:33;;;;;;;24.60;5.40;;;;;;;;;;10460191;28;20210;-77
2021/01/17 19:33:36;;;;;;;23.07;4.80;;;;;;;;;;10478472;28;20582;-78
2021/01/17 19:38:39;;;;;;;15.87;3.90;;;;;;;;;;10469428;28;20238;-78
2021/01/17 19:43:42;;;;;;;21.80;4.80;;;;;;;;;;10475026;28;20197;-78
2021/01/17 19:48:44;;;;;;;17.70;3.97;;;;;;;;;;10469033;28;20216;-78
2021/01/17 19:53:47;;;;;;;18.70;4.53;;;;;;;;;;10473503;28;20222;-77
2021/01/17 19:58:49;;;;;;;22.13;4.43;;;;;;;;;;10462722;28;20237;-87
2021/01/17 20:03:51;;;;;;;18.53;4.10;;;;;;;;;;10478850;28;20213;-91
2021/01/17 20:08:55;;;;;;;17.10;3.87;;;;;;;;;;10478471;28;20371;-82
2021/01/17 20:13:57;;;;;;;22.33;4.23;;;;;;;;;;10478371;28;20221;-81
2021/01/17 20:18:58;;;;;;;23.07;3.90;;;;;;;;;;10470684;28;20226;-81
2021/01/17 20:24:02;;;;;;;17.90;4.50;;;;;;;;;;10473773;28;20217;-82
2021/01/17 20:29:05;;;;;;;20.70;4.33;;;;;;;;;;10478464;28;20221;-77
2021/01/17 20:34:07;;;;;;;22.13;4.47;;;;;;;;;;10480106;28;20221;-78
2021/01/17 20:39:10;;;;;;;20.00;4.30;;;;;;;;;;10476725;28;20236;-79
2021/01/17 20:44:13;;;;;;;14.30;3.57;;;;;;;;;;10475485;28;20787;-78
2021/01/17 20:49:15;;;;;;;16.37;3.90;;;;;;;;;;10481408;28;20214;-78
2021/01/17 20:54:18;;;;;;;19.30;3.80;;;;;;;;;;10479249;28;20215;-79
2021/01/17 20:59:20;;;;;;;18.10;3.83;;;;;;;;;;10478914;28;20677;-78
2021/01/17 21:04:22;;;;;;;18.87;4.50;;;;;;;;;;10482300;28;20226;-78
2021/01/17 21:09:26;;;;;;;18.73;4.07;;;;;;;;;;10473859;28;20201;-78
2021/01/17 21:14:27;;;;;;;18.53;3.90;;;;;;;;;;10484963;28;20244;-78
2021/01/17 21:19:29;;;;;;;19.33;4.13;;;;;;;;;;10484386;28;20232;-78
2021/01/17 21:24:32;;;;;;;12.57;3.73;;;;;;;;;;10478525;28;20261;-79
2021/01/17 21:29:34;;;;;;;13.23;4.03;;;;;;;;;;10483005;28;20224;-79
2021/01/17 21:34:36;;;;;;;20.20;3.43;;;;;;;;;;10490452;28;20981;-78
2021/01/17 21:39:39;;;;;;;15.63;3.50;;;;;;;;;;10486391;28;20232;-77
2021/01/17 21:44:40;;;;;;;13.93;3.30;;;;;;;;;;10486246;28;20689;-76
2021/01/17 21:49:43;;;;;;;12.20;3.30;;;;;;;;;;10491725;28;20199;-78
2021/01/17 21:54:45;;;;;;;19.10;3.87;;;;;;;;;;10487801;28;20658;-78
2021/01/17 21:59:47;;;;;;;17.67;4.33;;;;;;;;;;10480756;28;20234;-78
2021/01/17 22:04:50;;;;;;;13.17;3.53;;;;;;;;;;10490293;28;20241;-78
2021/01/17 22:09:52;;;;;;;13.03;3.60;;;;;;;;;;10485955;28;20729;-78
2021/01/17 22:14:54;;;;;;;17.13;4.10;;;;;;;;;;10488898;28;20570;-78
2021/01/17 22:19:56;;;;;;;17.87;4.40;;;;;;;;;;10482050;28;20764;-78
2021/01/17 22:24:59;;;;;;;20.50;4.57;;;;;;;;;;10487376;28;20222;-78
2021/01/17 22:30:01;;;;;;;21.13;4.50;;;;;;;;;;10484933;28;20307;-78
2021/01/17 22:35:04;;;;;;;14.03;3.87;;;;;;;;;;10492959;28;20286;-78
2021/01/17 22:40:08;;;;;;;17.03;3.97;;;;;;;;;;10493573;28;20609;-78
2021/01/17 22:45:11;;;;;;;13.90;3.97;;;;;;;;;;10486281;28;20209;-78
2021/01/17 22:50:13;;;;;;;17.90;3.70;;;;;;;;;;10476880;28;20581;-78
2021/01/17 22:55:16;;;;;;;18.63;4.07;;;;;;;;;;10491962;28;20202;-78
2021/01/17 23:00:19;;;;;;;16.87;4.20;;;;;;;;;;10477764;28;22286;-78
2021/01/17 23:05:21;;;;;;;15.30;3.87;;;;;;;;;;10488547;28;20625;-79
2021/01/17 23:10:25;;;;;;;15.53;3.70;;;;;;;;;;10493236;28;20197;-78
2021/01/17 23:15:26;;;;;;;15.60;4.00;;;;;;;;;;10497348;28;20268;-77
2021/01/17 23:20:28;;;;;;;18.03;4.03;;;;;;;;;;10484701;28;20240;-79
2021/01/17 23:25:31;;;;;;;13.67;3.67;;;;;;;;;;10483814;28;20683;-78
2021/01/17 23:30:32;;;;;;;13.63;3.77;;;;;;;;;;10485226;28;20233;-79
2021/01/17 23:35:34;;;;;;;14.13;3.60;;;;;;;;;;10482962;28;20237;-78
2021/01/17 23:40:37;;;;;;;16.07;3.73;;;;;;;;;;10493807;28;20622;-79
2021/01/17 23:45:39;;;;;;;14.00;3.70;;;;;;;;;;10476959;28;20686;-79
2021/01/17 23:50:41;;;;;;;15.63;3.90;;;;;;;;;;10478312;28;20582;-78
2021/01/17 23:55:44;;;;;;;14.73;3.13;;;;;;;;;;10481318;28;20690;-77
